createdAt,value
2023-02-08T00:01:34.123Z,20.73
2023-02-08T00:04:02.408Z,23.80
2023-02-08T00:06:31.041Z,22.73
2023-02-08T00:08:59.380Z,24.08
2023-02-08T00:11:27.844Z,24.77
2023-02-08T00:13:56.004Z,23.40
2023-02-08T00:16:24.376Z,24.80
2023-02-08T00:18:52.576Z,28.38
2023-02-08T00:21:21.289Z,25.02
2023-02-08T00:23:49.883Z,20.88
2023-02-08T00:26:18.384Z,18.52
2023-02-08T00:28:46.752Z,17.67
2023-02-08T00:31:17.938Z,21.83
2023-02-08T00:33:46.830Z,24.40
2023-02-08T00:36:14.986Z,27.15
2023-02-08T00:38:43.378Z,25.70
2023-02-08T00:41:12.009Z,24.13
2023-02-08T00:43:40.212Z,22.42
2023-02-08T00:46:10.684Z,20.27
2023-02-08T00:48:39.049Z,22.13
2023-02-08T00:51:10.174Z,21.92
2023-02-08T00:53:40.250Z,28.80
2023-02-08T00:56:10.348Z,28.00
2023-02-08T00:58:38.560Z,27.27
2023-02-08T01:01:08.025Z,33.30
2023-02-08T01:03:38.956Z,35.50
2023-02-08T01:06:10.260Z,39.85
2023-02-08T01:08:42.228Z,37.73
2023-02-08T01:11:13.278Z,39.70
2023-02-08T01:13:42.826Z,39.30
2023-02-08T01:16:13.129Z,38.38
2023-02-08T01:18:44.143Z,38.58
2023-02-08T01:21:14.736Z,36.00
2023-02-08T01:23:44.689Z,33.47
2023-02-08T01:26:14.843Z,32.33
2023-02-08T01:28:43.469Z,31.25
2023-02-08T01:31:16.423Z,36.75
2023-02-08T01:33:45.474Z,45.70
2023-02-08T01:36:14.740Z,56.70
2023-02-08T01:38:44.788Z,66.20
2023-02-08T01:41:17.706Z,70.88
2023-02-08T01:44:29.372Z,71.57
2023-02-08T01:46:57.680Z,73.30
2023-02-08T01:49:30.453Z,71.80
2023-02-08T01:52:10.568Z,64.75
2023-02-08T01:54:58.057Z,61.40
2023-02-08T01:57:28.569Z,56.20
2023-02-08T02:00:02.331Z,53.90
2023-02-08T02:02:43.088Z,47.85
2023-02-08T02:05:15.109Z,44.90
2023-02-08T02:07:44.156Z,44.40
2023-02-08T02:10:18.596Z,48.00
2023-02-08T02:12:47.120Z,43.40
2023-02-08T02:15:15.382Z,44.67
2023-02-08T02:17:43.974Z,41.88
2023-02-08T02:20:38.340Z,37.97
2023-02-08T02:23:35.114Z,34.47
2023-02-08T02:26:54.702Z,34.45
2023-02-08T02:29:50.570Z,32.47
2023-02-08T02:32:27.913Z,29.63
2023-02-08T02:35:08.671Z,31.27
2023-02-08T02:38:14.746Z,31.25
2023-02-08T02:40:52.962Z,32.33
2023-02-08T02:43:33.568Z,32.45
2023-02-08T02:46:23.176Z,34.92
2023-02-08T02:49:16.316Z,32.72
2023-02-08T02:52:11.858Z,34.33
2023-02-08T02:54:48.055Z,33.65
2023-02-08T02:57:22.615Z,30.48
2023-02-08T02:59:51.298Z,30.40
2023-02-08T03:02:19.597Z,30.92
2023-02-08T03:04:56.243Z,30.35
2023-02-08T03:07:43.952Z,29.92
2023-02-08T03:10:48.511Z,30.05
2023-02-08T03:13:53.982Z,29.92
2023-02-08T03:16:26.936Z,28.90
2023-02-08T03:19:05.309Z,26.70
2023-02-08T03:21:51.726Z,28.95
2023-02-08T03:24:53.981Z,27.65
2023-02-08T03:27:38.527Z,29.63
2023-02-08T03:30:19.066Z,32.08
2023-02-08T03:33:07.669Z,30.25
2023-02-08T03:35:45.791Z,28.08
2023-02-08T03:38:29.927Z,29.02
2023-02-08T03:41:00.610Z,29.92
2023-02-08T03:43:40.859Z,30.85
2023-02-08T03:46:22.199Z,34.92
2023-02-08T03:49:00.005Z,30.50
2023-02-08T03:51:30.555Z,31.05
2023-02-08T03:54:01.744Z,30.20
2023-02-08T03:57:01.822Z,30.15
2023-02-08T03:59:35.368Z,29.08
2023-02-08T04:02:06.554Z,35.67
2023-02-08T04:04:39.798Z,35.35
2023-02-08T04:07:08.368Z,32.63
2023-02-08T04:09:38.753Z,35.13
2023-02-08T04:12:09.026Z,31.83
2023-02-08T04:14:37.269Z,30.27
2023-02-08T04:17:05.601Z,30.20
2023-02-08T04:19:34.191Z,30.40
2023-02-08T04:22:02.624Z,31.23
2023-02-08T04:24:30.918Z,30.80
2023-02-08T04:27:00.575Z,30.77
2023-02-08T04:29:29.709Z,31.20
2023-02-08T04:31:59.518Z,31.70
2023-02-08T04:34:27.832Z,30.55
2023-02-08T04:36:56.043Z,28.75
2023-02-08T04:39:25.664Z,29.38
2023-02-08T04:41:53.772Z,26.05
2023-02-08T04:44:21.957Z,29.90
2023-02-08T04:46:51.879Z,26.83
2023-02-08T04:49:20.316Z,27.02
2023-02-08T04:51:48.625Z,29.15
2023-02-08T04:54:17.303Z,27.25
2023-02-08T04:56:45.611Z,27.77
2023-02-08T04:59:13.813Z,28.13
2023-02-08T05:01:42.183Z,27.75
2023-02-08T05:04:10.470Z,32.78
2023-02-08T05:06:38.786Z,29.52
2023-02-08T05:09:10.880Z,35.20
2023-02-08T05:14:06.784Z,31.20
2023-02-08T05:16:35.131Z,34.67
2023-02-08T05:19:03.379Z,30.30
2023-02-08T05:21:34.205Z,30.17
2023-02-08T05:24:02.568Z,26.63
2023-02-08T05:26:31.030Z,26.10
2023-02-08T05:28:59.539Z,25.83
2023-02-08T05:31:27.852Z,24.95
2023-02-08T05:33:56.078Z,22.98
2023-02-08T05:36:24.636Z,22.85
2023-02-08T05:38:53.043Z,22.65
2023-02-08T05:41:21.272Z,23.48
2023-02-08T05:43:49.518Z,23.35
2023-02-08T05:46:18.384Z,24.58
2023-02-08T05:48:46.620Z,23.67
2023-02-08T05:51:15.180Z,23.15
2023-02-08T05:53:43.382Z,28.95
2023-02-08T05:56:11.663Z,30.42
2023-02-08T05:58:39.919Z,33.88
2023-02-08T06:01:12.408Z,32.65
2023-02-08T06:03:41.882Z,28.13
2023-02-08T06:06:10.061Z,23.92
2023-02-08T06:08:38.289Z,23.27
2023-02-08T06:11:07.292Z,21.40
2023-02-08T06:13:35.424Z,22.65
2023-02-08T06:16:03.859Z,21.85
2023-02-08T06:18:32.118Z,21.05
2023-02-08T06:21:00.305Z,23.38
2023-02-08T06:23:28.694Z,22.13
2023-02-08T06:25:56.871Z,22.88
2023-02-08T06:28:25.250Z,24.60
2023-02-08T06:30:54.037Z,23.67
2023-02-08T06:33:22.316Z,22.25
2023-02-08T06:35:53.833Z,23.77
2023-02-08T06:38:25.819Z,22.25
2023-02-08T06:40:54.185Z,20.13
2023-02-08T06:43:22.549Z,22.05
2023-02-08T06:45:50.853Z,22.98
2023-02-08T06:48:19.117Z,21.83
2023-02-08T06:50:47.557Z,20.88
2023-02-08T06:53:15.672Z,21.00
2023-02-08T06:55:48.254Z,20.75
2023-02-08T07:00:44.404Z,19.88
2023-02-08T07:03:13.608Z,19.63
2023-02-08T07:05:47.260Z,19.95
2023-02-08T07:08:23.705Z,20.40
2023-02-08T07:10:52.022Z,24.33
2023-02-08T07:13:20.210Z,19.73
2023-02-08T07:15:48.340Z,18.73
2023-02-08T07:18:16.676Z,19.35
2023-02-08T07:20:44.914Z,19.77
2023-02-08T07:23:13.180Z,20.00
2023-02-08T07:25:41.569Z,19.00
2023-02-08T07:28:10.060Z,19.10
2023-02-08T07:30:38.512Z,19.27
2023-02-08T07:33:08.198Z,18.83
2023-02-08T07:35:40.631Z,19.33
2023-02-08T07:38:09.215Z,19.15
2023-02-08T07:40:37.449Z,21.92
2023-02-08T07:43:05.846Z,22.85
2023-02-08T07:45:49.803Z,25.50
2023-02-08T07:48:18.020Z,22.02
2023-02-08T07:50:46.330Z,20.75
2023-02-08T07:53:14.797Z,21.20
2023-02-08T07:55:45.906Z,20.48
2023-02-08T07:58:15.365Z,18.40
2023-02-08T08:00:43.912Z,15.88
2023-02-08T08:03:12.104Z,14.18
2023-02-08T08:05:44.210Z,15.70
2023-02-08T08:08:13.707Z,15.38
2023-02-08T08:10:42.363Z,16.90
2023-02-08T08:13:10.975Z,15.30
2023-02-08T08:15:40.706Z,16.02
2023-02-08T08:18:09.813Z,15.85
2023-02-08T08:20:42.463Z,18.77
2023-02-08T08:23:11.678Z,16.73
2023-02-08T08:25:39.864Z,15.68
2023-02-08T08:28:10.891Z,16.65
2023-02-08T08:30:39.628Z,14.88
2023-02-08T08:33:08.154Z,15.02
2023-02-08T08:35:36.528Z,15.07
2023-02-08T08:38:04.874Z,17.25
2023-02-08T08:40:33.669Z,19.27
2023-02-08T08:43:02.033Z,19.88
2023-02-08T08:45:30.283Z,19.88
2023-02-08T08:47:58.576Z,21.75
2023-02-08T08:50:26.815Z,20.85
2023-02-08T08:52:55.026Z,25.58
2023-02-08T08:55:23.413Z,24.13
2023-02-08T08:57:53.732Z,22.27
2023-02-08T09:00:22.680Z,22.20
2023-02-08T09:02:50.807Z,25.02
2023-02-08T09:05:19.360Z,24.70
2023-02-08T09:07:47.464Z,24.88
2023-02-08T09:10:15.720Z,22.35
2023-02-08T09:12:44.010Z,20.80
2023-02-08T09:15:12.113Z,19.63
2023-02-08T09:17:41.412Z,18.58
2023-02-08T09:20:10.322Z,18.77
2023-02-08T09:22:39.103Z,19.98
2023-02-08T09:25:08.864Z,20.80
2023-02-08T09:27:37.193Z,18.88
2023-02-08T09:30:05.809Z,19.27
2023-02-08T09:32:37.222Z,19.65
2023-02-08T09:35:05.755Z,21.05
2023-02-08T09:37:34.327Z,23.40
2023-02-08T09:40:02.830Z,23.65
2023-02-08T09:42:38.726Z,23.50
2023-02-08T09:45:24.409Z,28.23
2023-02-08T09:48:27.339Z,26.65
2023-02-08T09:51:32.569Z,26.65
2023-02-08T09:54:23.329Z,26.50
2023-02-08T09:56:53.943Z,25.77
2023-02-08T09:59:27.582Z,25.05
2023-02-08T10:02:11.288Z,27.58
2023-02-08T10:05:01.312Z,23.50
2023-02-08T10:07:31.506Z,18.02
2023-02-08T10:10:06.126Z,17.50
2023-02-08T10:13:00.882Z,15.80
2023-02-08T10:15:33.432Z,16.08
2023-02-08T10:18:26.261Z,14.00
2023-02-08T10:21:13.116Z,12.30
2023-02-08T10:24:20.592Z,12.35
2023-02-08T10:26:56.206Z,10.80
2023-02-08T10:29:35.456Z,10.93
2023-02-08T10:32:03.854Z,10.85
2023-02-08T10:34:49.546Z,10.82
2023-02-08T10:37:39.889Z,11.82
2023-02-08T10:40:39.928Z,10.50
2023-02-08T10:43:25.352Z,10.07
2023-02-08T10:46:09.075Z,9.18
2023-02-08T10:48:58.682Z,7.25
2023-02-08T10:51:28.094Z,10.07
2023-02-08T10:53:56.337Z,9.13
2023-02-08T10:56:53.257Z,10.05
2023-02-08T10:59:30.686Z,11.00
2023-02-08T11:02:00.064Z,9.75
2023-02-08T11:04:28.960Z,9.02
2023-02-08T11:06:57.393Z,17.25
2023-02-08T11:09:29.243Z,28.83
2023-02-08T11:12:00.958Z,21.67
2023-02-08T11:14:48.248Z,18.52
2023-02-08T11:17:34.722Z,19.52
2023-02-08T11:20:03.087Z,19.75
2023-02-08T11:22:31.923Z,16.58
2023-02-08T11:25:08.124Z,15.20
2023-02-08T11:27:38.881Z,13.88
2023-02-08T11:30:16.273Z,14.10
2023-02-08T11:32:46.759Z,19.50
2023-02-08T11:35:23.858Z,18.30
2023-02-08T11:38:00.167Z,14.45
2023-02-08T11:40:37.133Z,13.20
2023-02-08T11:43:06.187Z,13.93
2023-02-08T11:45:37.501Z,17.75
2023-02-08T11:48:17.353Z,19.30
2023-02-08T11:50:45.765Z,17.80
2023-02-08T11:53:46.592Z,12.57
2023-02-08T11:56:24.846Z,13.70
2023-02-08T11:59:20.776Z,16.90
2023-02-08T12:01:49.114Z,20.88
2023-02-08T12:04:19.125Z,19.45
2023-02-08T12:07:31.942Z,19.15
2023-02-08T12:10:19.169Z,18.25
2023-02-08T12:13:10.800Z,17.40
2023-02-08T12:15:57.534Z,16.45
2023-02-08T12:18:35.655Z,13.85
2023-02-08T12:21:22.289Z,11.45
2023-02-08T12:24:03.586Z,19.20
2023-02-08T12:26:49.353Z,20.60
2023-02-08T12:29:47.817Z,17.85
2023-02-08T12:32:46.981Z,15.52
2023-02-08T12:36:02.748Z,15.70
2023-02-08T12:38:54.186Z,17.80
2023-02-08T12:41:28.345Z,15.07
2023-02-08T12:44:06.522Z,12.57
2023-02-08T12:46:49.841Z,15.43
2023-02-08T12:49:30.310Z,16.67
2023-02-08T12:52:38.408Z,14.25
2023-02-08T12:55:18.470Z,15.40
2023-02-08T12:57:51.436Z,12.20
2023-02-08T13:00:29.817Z,10.13
2023-02-08T13:03:25.134Z,13.25
2023-02-08T13:06:02.133Z,12.13
2023-02-08T13:09:14.309Z,12.55
2023-02-08T13:11:49.509Z,14.55
2023-02-08T13:14:20.818Z,19.67
2023-02-08T13:16:54.192Z,15.60
2023-02-08T13:19:58.992Z,18.05
2023-02-08T13:22:31.910Z,16.73
2023-02-08T13:25:08.022Z,14.38
2023-02-08T13:27:36.864Z,15.52
2023-02-08T13:30:07.285Z,12.43
2023-02-08T13:32:45.892Z,13.07
2023-02-08T13:35:17.265Z,14.63
2023-02-08T13:37:53.722Z,13.20
2023-02-08T13:40:30.717Z,13.20
2023-02-08T13:43:03.766Z,16.88
2023-02-08T13:45:42.614Z,18.33
2023-02-08T13:48:17.413Z,11.73
2023-02-08T13:50:47.880Z,13.45
2023-02-08T13:53:39.527Z,13.43
2023-02-08T13:56:12.595Z,12.38
2023-02-08T13:58:43.486Z,11.65
2023-02-08T14:01:31.957Z,14.70
2023-02-08T14:04:09.347Z,15.20
2023-02-08T14:07:00.763Z,16.30
2023-02-08T14:09:53.695Z,14.30
2023-02-08T14:12:40.552Z,15.88
2023-02-08T14:15:33.160Z,13.18
2023-02-08T14:18:02.293Z,14.70
2023-02-08T14:20:36.461Z,13.15
2023-02-08T14:23:08.663Z,15.75
2023-02-08T14:25:44.756Z,13.27
2023-02-08T14:28:36.489Z,13.40
2023-02-08T14:31:08.690Z,14.45
2023-02-08T14:33:43.275Z,13.77
2023-02-08T14:36:31.067Z,13.00
2023-02-08T14:39:26.183Z,14.73
2023-02-08T14:41:57.221Z,15.25
2023-02-08T14:44:40.927Z,16.80
2023-02-08T14:47:25.394Z,13.98
2023-02-08T14:50:18.067Z,16.60
2023-02-08T14:52:58.424Z,17.42
2023-02-08T14:55:34.374Z,14.73
2023-02-08T14:58:04.583Z,12.52
2023-02-08T15:00:38.473Z,17.52
2023-02-08T15:03:14.324Z,15.13
2023-02-08T15:05:58.095Z,13.82
2023-02-08T15:08:27.805Z,16.65
2023-02-08T15:10:56.811Z,18.50
2023-02-08T15:13:25.724Z,16.17
2023-02-08T15:15:58.272Z,16.10
2023-02-08T15:18:32.902Z,16.50
2023-02-08T15:21:05.452Z,12.88
2023-02-08T15:23:34.182Z,15.10
2023-02-08T15:26:03.886Z,14.00
2023-02-08T15:28:36.233Z,15.55
2023-02-08T15:31:15.051Z,14.13
2023-02-08T15:33:44.091Z,10.70
2023-02-08T15:36:22.299Z,12.35
2023-02-08T15:38:52.386Z,15.07
2023-02-08T15:41:29.468Z,13.85
2023-02-08T15:44:24.092Z,13.00
2023-02-08T15:46:56.405Z,13.48
2023-02-08T15:49:47.706Z,11.35
2023-02-08T15:52:21.907Z,14.80
2023-02-08T15:54:52.793Z,12.32
2023-02-08T15:57:31.849Z,12.35
2023-02-08T16:00:00.875Z,12.82
2023-02-08T16:02:30.633Z,13.20
2023-02-08T16:05:01.226Z,15.18
2023-02-08T16:07:35.504Z,16.10
2023-02-08T16:10:05.285Z,15.13
2023-02-08T16:12:34.548Z,14.55
2023-02-08T16:15:03.224Z,14.40
2023-02-08T16:17:39.080Z,14.07
2023-02-08T16:20:33.977Z,15.10
2023-02-08T16:23:24.136Z,14.02
2023-02-08T16:25:55.644Z,16.73
2023-02-08T16:28:31.489Z,15.05
2023-02-08T16:31:04.843Z,16.75
2023-02-08T16:33:34.229Z,16.92
2023-02-08T16:36:02.474Z,14.93
2023-02-08T16:38:33.417Z,16.75
2023-02-08T16:41:04.436Z,14.43
2023-02-08T16:43:33.571Z,14.87
2023-02-08T16:46:11.266Z,21.63
2023-02-08T16:48:44.900Z,13.60
2023-02-08T16:51:22.807Z,15.68
2023-02-08T16:53:54.582Z,16.77
2023-02-08T16:58:51.201Z,13.38
2023-02-08T17:01:21.370Z,12.18
2023-02-08T17:03:49.942Z,12.70
2023-02-08T17:06:39.381Z,20.85
2023-02-08T17:09:09.371Z,17.90
2023-02-08T17:11:37.965Z,19.05
2023-02-08T17:14:07.096Z,14.75
2023-02-08T17:16:37.011Z,15.95
2023-02-08T17:19:05.474Z,17.83
2023-02-08T17:21:33.810Z,17.85
2023-02-08T17:24:02.220Z,20.02
2023-02-08T17:26:45.261Z,19.52
2023-02-08T17:29:13.786Z,32.40
2023-02-08T17:31:42.137Z,38.20
2023-02-08T17:34:10.409Z,22.63
2023-02-08T17:36:39.733Z,27.40
2023-02-08T17:39:11.241Z,29.50
2023-02-08T17:41:40.950Z,22.63
2023-02-08T17:44:09.465Z,21.23
2023-02-08T17:46:37.665Z,18.08
2023-02-08T17:49:06.023Z,28.30
2023-02-08T17:51:34.280Z,21.20
2023-02-08T17:54:05.542Z,22.67
2023-02-08T17:56:33.999Z,19.88
2023-02-08T17:59:02.475Z,19.88
2023-02-08T18:01:31.365Z,17.83
2023-02-08T18:04:00.553Z,16.83
2023-02-08T18:06:29.162Z,18.73
2023-02-08T18:08:57.440Z,19.50
2023-02-08T18:11:25.733Z,18.98
2023-02-08T18:13:54.921Z,14.95
2023-02-08T18:16:26.062Z,17.80
2023-02-08T18:19:00.225Z,14.53
2023-02-08T18:21:28.930Z,17.70
2023-02-08T18:24:10.646Z,21.15
2023-02-08T18:26:46.662Z,16.63
2023-02-08T18:29:16.166Z,14.18
2023-02-08T18:31:45.346Z,20.63
2023-02-08T18:34:14.386Z,21.65
2023-02-08T18:36:42.897Z,20.02
2023-02-08T18:39:14.162Z,19.23
2023-02-08T18:41:43.315Z,21.25
2023-02-08T18:44:11.534Z,22.77
2023-02-08T18:46:40.040Z,21.92
2023-02-08T18:49:08.311Z,21.30
2023-02-08T18:51:36.556Z,28.92
2023-02-08T18:54:07.963Z,23.67
2023-02-08T18:56:37.719Z,23.48
2023-02-08T18:59:06.087Z,22.08
2023-02-08T19:01:34.482Z,21.23
2023-02-08T19:04:02.832Z,24.50
2023-02-08T19:06:32.956Z,28.05
2023-02-08T19:09:06.319Z,24.63
2023-02-08T19:11:40.464Z,20.27
2023-02-08T19:14:13.931Z,22.55
2023-02-08T19:16:45.803Z,21.60
2023-02-08T19:19:14.320Z,19.45
2023-02-08T19:21:42.489Z,20.65
2023-02-08T19:24:15.099Z,35.45
2023-02-08T19:26:43.707Z,34.38
2023-02-08T19:29:14.743Z,38.38
2023-02-08T19:31:44.312Z,33.50
2023-02-08T19:34:13.558Z,28.98
2023-02-08T19:36:44.574Z,31.90
2023-02-08T19:39:19.374Z,26.80
2023-02-08T19:41:48.573Z,26.35
2023-02-08T19:44:19.217Z,24.27
2023-02-08T19:47:13.663Z,22.92
2023-02-08T19:51:04.776Z,27.05
2023-02-08T19:53:33.476Z,32.55
2023-02-08T19:56:07.619Z,31.25
2023-02-08T19:58:37.781Z,28.77
2023-02-08T20:01:24.815Z,48.03
2023-02-08T20:03:54.755Z,51.00
2023-02-08T20:06:30.129Z,37.35
2023-02-08T20:08:58.416Z,27.92
2023-02-08T20:11:29.581Z,24.17
2023-02-08T20:14:01.248Z,31.83
2023-02-08T20:16:31.829Z,40.38
2023-02-08T20:19:01.782Z,55.28
2023-02-08T20:21:31.290Z,28.75
2023-02-08T20:24:01.596Z,21.45
2023-02-08T20:26:31.126Z,23.60
2023-02-08T20:29:00.418Z,18.73
2023-02-08T20:31:31.569Z,32.80
2023-02-08T20:34:04.046Z,41.47
2023-02-08T20:36:35.284Z,50.30
2023-02-08T20:39:03.779Z,67.50
2023-02-08T20:41:32.202Z,60.42
2023-02-08T20:44:00.895Z,56.33
2023-02-08T20:46:32.163Z,59.80
2023-02-08T20:49:02.191Z,60.83
2023-02-08T20:51:32.920Z,53.47
2023-02-08T20:54:02.538Z,44.30
2023-02-08T20:56:36.403Z,45.95
2023-02-08T20:59:10.848Z,46.53
2023-02-08T21:01:39.226Z,41.63
2023-02-08T21:04:07.394Z,40.08
2023-02-08T21:06:38.111Z,33.15
2023-02-08T21:09:09.423Z,29.00
2023-02-08T21:11:37.922Z,31.75
2023-02-08T21:14:07.207Z,30.45
2023-02-08T21:16:35.587Z,35.55
2023-02-08T21:19:03.794Z,34.03
2023-02-08T21:21:32.374Z,35.47
2023-02-08T21:24:00.518Z,37.45
2023-02-08T21:26:29.008Z,31.35
2023-02-08T21:28:57.970Z,25.15
2023-02-08T21:31:26.784Z,24.63
2023-02-08T21:33:55.025Z,25.08
2023-02-08T21:36:24.778Z,27.08
2023-02-08T21:38:53.230Z,39.17
2023-02-08T21:41:30.527Z,42.00
2023-02-08T21:44:01.259Z,27.33
2023-02-08T21:46:29.736Z,19.27
2023-02-08T21:48:59.312Z,61.92
2023-02-08T21:51:27.785Z,81.10
2023-02-08T21:53:56.048Z,35.17
2023-02-08T21:56:24.476Z,70.43
2023-02-08T21:58:52.683Z,54.65
2023-02-08T22:01:21.129Z,24.65
2023-02-08T22:03:49.692Z,18.17
2023-02-08T22:06:18.011Z,18.65
2023-02-08T22:08:46.373Z,21.70
2023-02-08T22:11:15.729Z,41.97
2023-02-08T22:13:44.368Z,42.92
2023-02-08T22:16:13.127Z,39.78
2023-02-08T22:18:41.797Z,34.78
2023-02-08T22:21:10.099Z,35.67
2023-02-08T22:23:38.567Z,31.55
2023-02-08T22:26:10.712Z,30.70
2023-02-08T22:31:06.898Z,29.27
2023-02-08T22:33:35.428Z,30.98
2023-02-08T22:36:08.533Z,34.95
2023-02-08T22:40:31.735Z,29.92
2023-02-08T22:42:59.999Z,31.00
2023-02-08T22:45:28.449Z,32.85
2023-02-08T22:47:56.862Z,32.30
2023-02-08T22:50:25.152Z,32.22
2023-02-08T22:52:53.387Z,35.10
2023-02-08T22:55:22.032Z,38.45
2023-02-08T22:57:50.244Z,49.25
2023-02-08T23:00:18.719Z,65.15
2023-02-08T23:02:47.219Z,69.60
2023-02-08T23:05:15.545Z,80.97
2023-02-08T23:07:46.609Z,67.93
2023-02-08T23:10:15.042Z,90.78
2023-02-08T23:13:08.828Z,85.88
2023-02-08T23:15:41.674Z,72.53
2023-02-08T23:18:10.728Z,47.67
2023-02-08T23:20:40.658Z,45.10
2023-02-08T23:23:09.514Z,53.10
2023-02-08T23:25:42.131Z,89.35
2023-02-08T23:28:12.403Z,85.30
2023-02-08T23:30:42.654Z,79.30
2023-02-08T23:33:11.433Z,59.78
2023-02-08T23:35:42.879Z,51.22
2023-02-08T23:38:11.316Z,52.30
2023-02-08T23:40:41.335Z,51.17
2023-02-08T23:43:09.752Z,54.65
2023-02-08T23:45:38.033Z,47.25
2023-02-08T23:48:06.483Z,42.75
2023-02-08T23:50:36.030Z,55.40
2023-02-08T23:53:04.318Z,57.17
2023-02-08T23:55:32.741Z,63.95
2023-02-08T23:58:01.132Z,53.00
